Time;durP1;ratioP1;P1;durP2;ratioP2;P2;SDS_P1;SDS_P2;PMS_P1;PMS_P2;Temp;Humidity;BMP_temperature;BMP_pressure;BME280_temperature;BME280_humidity;BME280_pressure;Samples;Min_cycle;Max_cycle;Signal;HPM_P1;HPM_P2
2022/11/06 00:01:27;;;;;;;27.10;14.90;;;4.50;1.00;;;;;;4916163;29;20209;-79
2022/11/06 00:03:54;;;;;;;28.70;14.60;;;4.50;1.00;;;;;;4916134;29;20201;-80
2022/11/06 00:09:09;;;;;;;26.50;15.27;;;4.50;1.00;;;;;;4915896;29;20533;-79
2022/11/06 00:11:36;;;;;;;25.90;15.40;;;4.50;1.00;;;;;;4915840;29;20237;-78
2022/11/06 00:14:04;;;;;;;32.70;15.20;;;4.50;1.00;;;;;;4930642;29;20567;-79
2022/11/06 00:16:31;;;;;;;29.77;15.30;;;4.50;1.00;;;;;;4925173;29;20680;-79
2022/11/06 00:19:00;;;;;;;26.60;14.67;;;4.50;1.00;;;;;;4915710;29;20694;-79
2022/11/06 00:21:29;;;;;;;24.60;13.87;;;4.50;1.00;;;;;;4915995;29;20230;-78
2022/11/06 00:23:57;;;;;;;25.03;14.63;;;4.40;1.00;;;;;;4915981;29;20197;-80
2022/11/06 00:26:28;;;;;;;26.97;14.47;;;4.50;1.00;;;;;;4915949;29;20532;-81
2022/11/06 00:28:55;;;;;;;26.13;14.57;;;4.40;1.00;;;;;;4915857;29;20250;-79
2022/11/06 00:31:23;;;;;;;27.07;14.97;;;4.40;1.00;;;;;;4915598;29;20288;-79
2022/11/06 00:33:50;;;;;;;26.70;15.33;;;4.40;1.00;;;;;;4931767;29;20260;-79
2022/11/06 00:36:20;;;;;;;30.00;15.83;;;4.40;1.00;;;;;;4936010;29;20758;-80
2022/11/06 00:38:47;;;;;;;31.90;15.10;;;4.40;1.00;;;;;;4938681;29;20200;-78
2022/11/06 00:41:16;;;;;;;27.20;14.80;;;4.30;1.00;;;;;;4937961;29;20597;-78
2022/11/06 00:43:49;;;;;;;26.57;14.67;;;4.30;1.00;;;;;;4938372;29;20617;-78
2022/11/06 00:46:18;;;;;;;24.60;14.17;;;4.30;1.00;;;;;;4928761;29;20198;-78
2022/11/06 00:48:45;;;;;;;25.87;14.10;;;4.30;1.00;;;;;;4921095;29;20205;-78
2022/11/06 00:51:14;;;;;;;29.40;14.50;;;4.20;1.00;;;;;;4937837;29;20203;-78
2022/11/06 00:53:42;;;;;;;28.90;14.50;;;4.20;1.00;;;;;;4921132;29;20257;-78
2022/11/06 00:56:11;;;;;;;26.33;13.97;;;4.20;1.00;;;;;;4919016;29;20289;-79
2022/11/06 00:58:38;;;;;;;25.47;13.93;;;4.20;1.00;;;;;;4919068;29;20250;-80
2022/11/06 01:01:08;;;;;;;27.63;14.77;;;4.20;1.00;;;;;;4918997;29;20269;-78
2022/11/06 01:03:36;;;;;;;30.73;14.63;;;4.20;1.00;;;;;;4919242;29;20197;-78
2022/11/06 01:06:10;;;;;;;29.50;14.70;;;4.20;1.00;;;;;;4918884;29;20256;-79
2022/11/06 01:08:38;;;;;;;30.40;15.13;;;4.20;1.00;;;;;;4919046;29;20204;-78
2022/11/06 01:11:07;;;;;;;24.90;13.37;;;4.10;1.00;;;;;;4918501;29;20256;-80
2022/11/06 01:13:35;;;;;;;25.73;14.17;;;4.10;1.00;;;;;;4935601;29;20280;-79
2022/11/06 01:16:04;;;;;;;24.57;13.87;;;4.10;1.00;;;;;;4930128;29;20217;-78
2022/11/06 01:18:32;;;;;;;26.60;12.27;;;4.10;1.00;;;;;;4918684;29;20205;-78
2022/11/06 01:20:59;;;;;;;22.23;12.40;;;4.10;1.00;;;;;;4918405;29;20197;-79
2022/11/06 01:23:26;;;;;;;24.67;12.90;;;4.10;1.00;;;;;;4918601;29;20272;-78
2022/11/06 01:25:58;;;;;;;22.40;11.93;;;4.10;1.00;;;;;;4918776;29;20197;-81
2022/11/06 01:28:26;;;;;;;29.70;13.37;;;4.10;1.00;;;;;;4920870;29;20719;-79
2022/11/06 01:30:53;;;;;;;24.40;12.93;;;4.10;1.00;;;;;;4930198;29;20198;-79
2022/11/06 01:33:21;;;;;;;22.40;11.57;;;4.10;99.90;;;;;;4918663;29;20260;-78
2022/11/06 01:35:51;;;;;;;26.70;13.00;;;4.00;2.00;;;;;;4918278;29;20201;-81
2022/11/06 01:38:18;;;;;;;26.10;11.50;;;4.00;1.00;;;;;;4918436;29;20185;-79
2022/11/06 01:40:47;;;;;;;23.20;12.07;;;4.00;19.20;;;;;;4918294;29;20201;-80
2022/11/06 01:43:18;;;;;;;26.43;11.97;;;4.00;76.10;;;;;;4932514;29;20201;-79
2022/11/06 01:45:46;;;;;;;31.10;12.13;;;4.00;90.80;;;;;;4936975;29;20452;-79
2022/11/06 01:48:14;;;;;;;40.40;12.97;;;4.00;86.00;;;;;;4937084;29;20204;-79
2022/11/06 01:50:43;;;;;;;27.10;11.43;;;4.00;62.20;;;;;;4936842;29;20197;-79
2022/11/06 01:53:12;;;;;;;47.43;20.67;;;4.00;21.40;;;;;;4937031;29;20235;-79
2022/11/06 01:55:51;;;;;;;51.47;25.93;;;3.90;1.00;;;;;;4936802;29;20730;-78
2022/11/06 01:58:21;;;;;;;48.87;23.00;;;3.90;1.00;;;;;;4936229;29;20188;-78
2022/11/06 02:00:48;;;;;;;64.83;30.00;;;3.90;1.00;;;;;;4936643;29;20536;-78
2022/11/06 02:03:16;;;;;;;85.57;33.90;;;3.90;1.00;;;;;;4936582;29;20200;-78
2022/11/06 02:05:44;;;;;;;101.37;33.37;;;3.90;1.00;;;;;;4937111;29;20200;-79
2022/11/06 02:08:15;;;;;;;74.27;25.77;;;3.90;1.00;;;;;;4936450;29;20197;-79
2022/11/06 02:10:43;;;;;;;29.77;13.03;;;3.80;1.00;;;;;;4936804;29;20184;-79
2022/11/06 02:13:18;;;;;;;26.03;12.00;;;3.90;1.00;;;;;;4935861;29;20789;-78
2022/11/06 02:15:50;;;;;;;25.80;11.17;;;3.90;1.00;;;;;;4936640;29;20188;-79
2022/11/06 02:18:49;;;;;;;32.87;11.40;;;3.90;1.00;;;;;;4935887;29;20189;-78
2022/11/06 02:21:27;;;;;;;42.07;12.17;;;3.90;1.00;;;;;;4928635;29;20237;-78
2022/11/06 02:24:24;;;;;;;39.60;13.63;;;3.90;1.00;;;;;;4936717;29;20234;-78
2022/11/06 02:27:10;;;;;;;32.50;11.63;;;3.80;1.00;;;;;;4935934;29;20192;-78
2022/11/06 02:29:45;;;;;;;40.77;15.70;;;3.80;1.00;;;;;;4936032;29;20200;-78
2022/11/06 02:32:17;;;;;;;37.20;17.40;;;3.80;1.00;;;;;;4931995;29;20236;-79
2022/11/06 02:34:47;;;;;;;40.53;17.47;;;3.70;1.00;;;;;;4936058;29;20181;-79
2022/11/06 02:37:17;;;;;;;41.63;18.83;;;3.70;1.00;;;;;;4936211;29;20281;-79
2022/11/06 02:39:47;;;;;;;51.33;16.73;;;3.70;1.00;;;;;;4935542;29;20611;-78
2022/11/06 02:42:19;;;;;;;58.77;16.67;;;3.70;1.00;;;;;;4935796;29;20611;-79
2022/11/06 02:44:51;;;;;;;58.67;16.07;;;3.70;1.00;;;;;;4936232;29;20181;-80
2022/11/06 02:47:21;;;;;;;30.10;13.50;;;3.70;1.00;;;;;;4935861;29;20181;-80
2022/11/06 02:49:53;;;;;;;29.40;10.63;;;3.60;1.00;;;;;;4935766;29;20187;-79
2022/11/06 02:52:23;;;;;;;29.50;9.50;;;3.60;1.00;;;;;;4934339;29;20236;-78
2022/11/06 02:54:56;;;;;;;42.20;14.07;;;3.70;1.00;;;;;;4935987;29;20326;-78
2022/11/06 02:57:26;;;;;;;59.93;15.93;;;3.70;1.00;;;;;;4935779;29;20555;-78
2022/11/06 02:59:59;;;;;;;74.50;16.03;;;3.70;1.00;;;;;;4920455;29;20223;-78
2022/11/06 03:02:32;;;;;;;75.63;14.33;;;3.70;1.00;;;;;;4916797;29;20185;-80
2022/11/06 03:05:05;;;;;;;36.63;12.40;;;3.70;1.00;;;;;;4918006;29;20186;-78
2022/11/06 03:07:39;;;;;;;36.77;12.07;;;3.70;1.00;;;;;;4916401;29;20711;-79
2022/11/06 03:10:08;;;;;;;36.97;10.00;;;3.60;1.00;;;;;;4916782;29;20585;-78
2022/11/06 03:12:43;;;;;;;42.70;9.40;;;3.60;1.00;;;;;;4933511;29;20251;-78
2022/11/06 03:15:18;;;;;;;30.43;9.43;;;3.60;1.00;;;;;;4935387;29;20185;-80
2022/11/06 03:17:50;;;;;;;53.93;10.07;;;3.60;1.00;;;;;;4935248;29;20200;-79
2022/11/06 03:20:23;;;;;;;53.90;10.60;;;3.60;1.00;;;;;;4935635;29;20185;-79
2022/11/06 03:22:56;;;;;;;59.47;8.63;;;3.70;1.00;;;;;;4918860;29;20193;-79
2022/11/06 03:25:28;;;;;;;59.17;10.17;;;3.70;1.00;;;;;;4916732;29;20256;-79
2022/11/06 03:28:03;;;;;;;51.93;10.57;;;3.70;1.00;;;;;;4916379;29;20277;-79
2022/11/06 03:30:32;;;;;;;58.17;10.90;;;3.70;1.00;;;;;;4916239;29;20197;-79
2022/11/06 03:33:05;;;;;;;22.40;10.53;;;3.80;1.00;;;;;;4916374;29;20256;-79
2022/11/06 03:35:36;;;;;;;29.50;10.10;;;3.80;1.00;;;;;;4916167;29;20194;-80
2022/11/06 03:38:09;;;;;;;18.43;9.60;;;3.80;1.00;;;;;;4916334;29;20205;-80
2022/11/06 03:40:44;;;;;;;17.27;8.13;;;3.80;1.00;;;;;;4916084;29;20188;-80
2022/11/06 03:43:16;;;;;;;18.30;6.93;;;3.80;1.00;;;;;;4916377;29;20194;-79
2022/11/06 03:45:45;;;;;;;15.70;7.10;;;3.80;1.00;;;;;;4916317;29;20193;-80
2022/11/06 03:48:18;;;;;;;18.57;7.03;;;3.80;1.00;;;;;;4916298;29;20209;-79
2022/11/06 03:50:50;;;;;;;17.20;7.23;;;3.80;1.00;;;;;;4915754;29;20648;-80
2022/11/06 03:53:23;;;;;;;15.70;7.13;;;3.80;1.00;;;;;;4916012;29;20253;-79
2022/11/06 03:55:55;;;;;;;17.80;7.50;;;3.80;1.00;;;;;;4915810;29;20632;-79
2022/11/06 03:58:27;;;;;;;16.33;7.40;;;3.80;1.00;;;;;;4915689;29;20260;-79
2022/11/06 04:00:56;;;;;;;18.93;7.87;;;3.90;1.00;;;;;;4915971;29;20639;-79
2022/11/06 04:03:28;;;;;;;20.10;8.73;;;3.90;1.00;;;;;;4916103;29;20198;-79
2022/11/06 04:06:00;;;;;;;17.70;9.00;;;3.80;1.00;;;;;;4916422;29;20571;-79
2022/11/06 04:14:06;;;;;;;21.40;7.70;;;3.80;1.00;;;;;;4919817;29;20252;-79
2022/11/06 04:16:36;;;;;;;20.27;7.80;;;3.80;1.00;;;;;;4919698;29;20193;-78
2022/11/06 04:19:03;;;;;;;17.63;8.00;;;3.80;1.00;;;;;;4919892;29;20253;-79
2022/11/06 04:21:43;;;;;;;18.83;8.00;;;3.80;1.00;;;;;;4919732;29;20260;-78
2022/11/06 04:27:15;;;;;;;16.17;7.57;;;3.80;1.00;;;;;;4919284;29;20216;-80
2022/11/06 04:29:55;;;;;;;14.73;7.53;;;3.80;1.00;;;;;;4919065;29;20644;-79
2022/11/06 04:32:28;;;;;;;14.73;7.27;;;3.80;1.00;;;;;;4919560;29;20237;-80
2022/11/06 04:35:02;;;;;;;24.73;11.77;;;3.80;1.00;;;;;;4919793;29;20245;-78
2022/11/06 04:37:36;;;;;;;25.70;13.70;;;3.80;1.00;;;;;;4919579;29;20253;-79
2022/11/06 04:40:10;;;;;;;25.37;13.33;;;3.90;3.10;;;;;;4918899;29;20188;-79
2022/11/06 04:42:42;;;;;;;26.27;13.20;;;3.90;1.00;;;;;;4919400;29;20703;-78
2022/11/06 04:45:14;;;;;;;20.53;11.80;;;3.90;1.00;;;;;;4918937;29;20193;-79
2022/11/06 04:47:42;;;;;;;21.47;10.00;;;3.90;1.00;;;;;;4919028;29;20594;-79
2022/11/06 04:50:12;;;;;;;18.77;9.07;;;3.90;1.00;;;;;;4918691;29;20193;-78
2022/11/06 04:52:40;;;;;;;22.80;10.73;;;3.90;1.00;;;;;;4918630;29;20252;-80
2022/11/06 04:55:08;;;;;;;21.03;9.73;;;3.90;1.00;;;;;;4918855;29;20743;-79
2022/11/06 04:57:35;;;;;;;29.33;11.00;;;3.90;1.00;;;;;;4919003;29;20217;-79
2022/11/06 05:00:03;;;;;;;20.47;10.17;;;3.90;1.00;;;;;;4918320;29;20671;-80
2022/11/06 05:02:31;;;;;;;17.93;8.53;;;3.90;1.00;;;;;;4918623;29;20208;-80
2022/11/06 05:04:58;;;;;;;22.07;9.27;;;3.90;1.00;;;;;;4919179;29;20664;-78
2022/11/06 05:07:25;;;;;;;18.47;9.10;;;3.90;1.00;;;;;;4919140;29;20193;-79
2022/11/06 05:09:52;;;;;;;14.90;8.30;;;3.90;1.00;;;;;;4918580;29;20205;-79
2022/11/06 05:12:19;;;;;;;17.77;8.97;;;3.90;1.00;;;;;;4918585;29;20191;-80
2022/11/06 05:14:46;;;;;;;15.20;8.50;;;4.00;1.00;;;;;;4918024;29;20290;-79
2022/11/06 05:17:13;;;;;;;16.40;8.33;;;4.00;1.00;;;;;;4918374;29;20221;-80
2022/11/06 05:19:41;;;;;;;19.17;8.47;;;4.00;1.00;;;;;;4918479;29;20249;-80
2022/11/06 05:24:54;;;;;;;16.83;8.27;;;3.90;1.00;;;;;;4918412;29;20636;-78
2022/11/06 05:27:21;;;;;;;18.63;8.83;;;3.90;1.00;;;;;;4917961;29;20201;-79
2022/11/06 05:29:48;;;;;;;17.47;8.93;;;3.90;1.00;;;;;;4918503;29;20589;-78
2022/11/06 05:32:15;;;;;;;19.63;9.70;;;3.90;1.00;;;;;;4918528;29;20201;-78
2022/11/06 05:34:44;;;;;;;26.53;10.53;;;3.80;1.00;;;;;;4918292;29;20193;-79
2022/11/06 05:37:11;;;;;;;18.83;9.23;;;3.70;1.00;;;;;;4918332;29;20227;-79
2022/11/06 05:39:38;;;;;;;18.93;9.47;;;3.70;1.00;;;;;;4917684;29;20249;-78
2022/11/06 05:42:05;;;;;;;18.50;8.83;;;3.70;1.00;;;;;;4917996;29;20205;-79
2022/11/06 05:44:32;;;;;;;16.90;8.77;;;3.70;1.00;;;;;;4918004;29;20198;-79
2022/11/06 05:46:59;;;;;;;20.30;9.70;;;3.60;1.00;;;;;;4918280;29;20605;-79
2022/11/06 05:49:26;;;;;;;29.03;15.27;;;3.60;1.00;;;;;;4918202;29;20265;-79
2022/11/06 05:51:55;;;;;;;37.60;19.03;;;3.60;1.00;;;;;;4918159;29;20205;-78
2022/11/06 05:54:22;;;;;;;27.23;13.10;;;3.50;1.00;;;;;;4917776;29;20743;-80
2022/11/06 05:56:49;;;;;;;24.53;13.23;;;3.50;1.00;;;;;;4918008;29;20193;-80
2022/11/06 05:59:16;;;;;;;19.57;10.33;;;3.50;1.00;;;;;;4918030;29;20201;-80
2022/11/06 06:01:43;;;;;;;25.27;10.50;;;3.50;1.00;;;;;;4917982;29;20672;-78
2022/11/06 06:04:10;;;;;;;17.03;10.20;;;3.50;1.00;;;;;;4917910;29;20233;-79
2022/11/06 06:06:37;;;;;;;27.00;10.63;;;3.50;1.00;;;;;;4917346;29;20201;-79
2022/11/06 06:09:05;;;;;;;23.70;10.67;;;3.50;1.00;;;;;;4916961;29;20236;-79
2022/11/06 06:11:32;;;;;;;17.47;10.40;;;3.50;1.00;;;;;;4918012;29;20205;-78
2022/11/06 06:14:00;;;;;;;21.53;10.50;;;3.50;1.00;;;;;;4917539;29;20232;-78
2022/11/06 06:16:27;;;;;;;25.47;10.93;;;3.50;1.00;;;;;;4917639;29;20205;-78
2022/11/06 06:18:54;;;;;;;19.37;10.37;;;3.50;1.00;;;;;;4917249;29;20309;-80
2022/11/06 06:21:21;;;;;;;22.50;10.53;;;3.50;4.00;;;;;;4917625;29;20205;-78
2022/11/06 06:23:48;;;;;;;22.17;11.03;;;3.60;1.00;;;;;;4917563;29;20208;-78
2022/11/06 06:26:17;;;;;;;26.57;12.67;;;3.60;1.00;;;;;;4916829;29;20193;-78
2022/11/06 06:28:44;;;;;;;25.70;11.57;;;3.60;29.70;;;;;;4917044;29;20608;-79
2022/11/06 06:31:11;;;;;;;23.90;11.67;;;3.70;53.80;;;;;;4917388;29;20201;-78
2022/11/06 06:33:38;;;;;;;23.70;11.47;;;3.70;69.40;;;;;;4916581;29;20201;-79
2022/11/06 06:36:06;;;;;;;24.50;11.87;;;3.70;98.10;;;;;;4917569;29;20197;-79
2022/11/06 06:38:33;;;;;;;23.50;12.10;;;3.80;99.90;;;;;;4916967;29;20265;-79
2022/11/06 06:41:02;;;;;;;27.00;12.83;;;3.80;94.20;;;;;;4917324;29;20193;-78
2022/11/06 06:43:30;;;;;;;27.13;12.97;;;3.90;69.80;;;;;;4917193;29;20197;-79
2022/11/06 06:45:58;;;;;;;27.47;12.60;;;3.90;22.40;;;;;;4916882;29;20189;-78
2022/11/06 06:48:25;;;;;;;27.57;12.80;;;3.90;25.80;;;;;;4916844;29;20766;-80
2022/11/06 06:50:53;;;;;;;27.87;12.43;;;3.90;33.60;;;;;;4916536;29;20209;-79
2022/11/06 06:53:20;;;;;;;36.37;21.67;;;4.00;51.20;;;;;;4916673;29;20205;-79
2022/11/06 06:55:47;;;;;;;42.13;22.37;;;4.00;73.70;;;;;;4916453;29;20732;-78
2022/11/06 06:58:14;;;;;;;29.70;15.40;;;4.10;99.90;;;;;;4916707;29;20273;-78
2022/11/06 07:00:42;;;;;;;28.27;14.87;;;4.10;99.90;;;;;;4916551;29;20200;-78
2022/11/06 07:03:10;;;;;;;27.23;14.97;;;4.10;99.90;;;;;;4916869;29;20676;-79
2022/11/06 07:05:37;;;;;;;28.27;13.87;;;4.20;99.90;;;;;;4916482;29;20197;-79
2022/11/06 07:08:04;;;;;;;26.53;13.67;;;4.20;99.90;;;;;;4916973;29;20209;-78
2022/11/06 07:10:31;;;;;;;30.70;14.97;;;4.30;99.90;;;;;;4916721;29;20625;-78
2022/11/06 07:13:01;;;;;;;27.77;15.53;;;4.30;99.90;;;;;;4915957;29;20288;-80
2022/11/06 07:15:28;;;;;;;32.57;18.37;;;4.40;99.90;;;;;;4916439;29;20578;-79
2022/11/06 07:18:01;;;;;;;33.33;14.43;;;4.40;99.90;;;;;;4916427;29;20217;-78
2022/11/06 07:20:28;;;;;;;25.57;14.70;;;4.40;99.90;;;;;;4916356;29;20707;-80
2022/11/06 07:22:57;;;;;;;25.13;14.33;;;4.50;99.90;;;;;;4920006;29;20193;-79
2022/11/06 07:25:24;;;;;;;26.83;15.30;;;4.60;99.90;;;;;;4934556;29;20235;-78
2022/11/06 07:27:51;;;;;;;31.07;16.30;;;4.60;99.90;;;;;;4935564;29;20201;-79
2022/11/06 07:30:18;;;;;;;29.90;17.53;;;4.70;99.90;;;;;;4935107;29;20241;-79
2022/11/06 07:32:45;;;;;;;31.23;15.67;;;4.70;99.90;;;;;;4925511;29;20202;-78
2022/11/06 07:35:13;;;;;;;32.10;19.23;;;4.80;99.90;;;;;;4935027;29;20263;-78
2022/11/06 07:37:40;;;;;;;30.57;18.33;;;4.90;99.90;;;;;;4935148;29;20290;-79
2022/11/06 07:40:09;;;;;;;37.60;21.67;;;4.90;99.90;;;;;;4916651;29;20273;-79
2022/11/06 07:42:36;;;;;;;32.50;18.63;;;5.00;99.90;;;;;;4916249;29;20203;-80
2022/11/06 07:45:03;;;;;;;33.77;19.97;;;5.10;99.90;;;;;;4915830;29;20198;-79
2022/11/06 07:47:30;;;;;;;33.47;18.40;;;5.10;99.90;;;;;;4915880;29;20308;-79
2022/11/06 07:49:57;;;;;;;35.53;18.33;;;5.20;99.90;;;;;;4916222;29;20262;-78
2022/11/06 07:52:26;;;;;;;31.53;18.47;;;5.20;99.90;;;;;;4916195;29;20198;-80
2022/11/06 07:54:52;;;;;;;33.30;18.93;;;5.30;99.90;;;;;;4915854;29;20245;-79
2022/11/06 07:57:20;;;;;;;27.73;16.33;;;5.40;99.90;;;;;;4915839;29;20198;-79
2022/11/06 07:59:47;;;;;;;32.93;18.07;;;5.40;99.90;;;;;;4915350;29;20203;-78
2022/11/06 08:02:16;;;;;;;28.23;16.73;;;5.50;99.90;;;;;;4915208;29;20197;-78
2022/11/06 08:04:43;;;;;;;30.43;17.43;;;5.60;99.90;;;;;;4915035;29;20556;-78
2022/11/06 08:07:10;;;;;;;26.77;16.87;;;5.60;99.90;;;;;;4914828;29;20258;-79
2022/11/06 08:09:38;;;;;;;35.90;19.33;;;5.70;99.90;;;;;;4915172;29;20198;-78
2022/11/06 08:12:06;;;;;;;30.27;17.67;;;5.80;99.90;;;;;;4916177;29;20207;-80
2022/11/06 08:14:33;;;;;;;36.17;18.40;;;5.90;99.90;;;;;;4915208;29;20235;-79
2022/11/06 08:17:00;;;;;;;29.73;17.83;;;5.90;99.90;;;;;;4915487;29;20654;-79
2022/11/06 08:19:27;;;;;;;33.80;18.13;;;6.00;99.90;;;;;;4916884;29;20691;-80
2022/11/06 08:21:54;;;;;;;29.63;16.27;;;6.10;99.90;;;;;;4928080;29;20237;-79
2022/11/06 08:24:21;;;;;;;21.90;13.43;;;6.20;99.90;;;;;;4934643;29;20719;-80
2022/11/06 08:26:50;;;;;;;30.43;16.63;;;6.20;99.90;;;;;;4934803;29;20280;-79
2022/11/06 08:29:17;;;;;;;27.23;14.60;;;6.30;99.90;;;;;;4934896;29;20195;-79
2022/11/06 08:31:44;;;;;;;31.03;18.40;;;6.30;99.90;;;;;;4934817;29;20199;-79
2022/11/06 08:34:11;;;;;;;26.47;15.57;;;6.30;99.90;;;;;;4934670;29;20208;-78
2022/11/06 08:36:40;;;;;;;31.17;17.73;;;6.40;99.90;;;;;;4933725;29;20198;-78
2022/11/06 08:39:07;;;;;;;21.03;13.17;;;6.50;99.90;;;;;;4917470;29;20219;-79
2022/11/06 08:41:34;;;;;;;28.83;15.67;;;6.50;99.90;;;;;;4915743;29;20202;-78
2022/11/06 08:44:03;;;;;;;25.70;16.07;;;6.60;99.90;;;;;;4915673;29;20202;-79
2022/11/06 08:46:30;;;;;;;28.80;16.77;;;6.60;99.90;;;;;;4926575;29;20231;-79
2022/11/06 08:48:57;;;;;;;30.57;15.30;;;6.70;99.90;;;;;;4920271;28;20205;-78
2022/11/06 08:51:24;;;;;;;26.80;16.00;;;6.70;99.90;;;;;;4915673;29;20194;-78
2022/11/06 08:53:51;;;;;;;28.17;16.80;;;6.80;99.90;;;;;;4930941;29;20200;-79
2022/11/06 08:56:18;;;;;;;29.93;16.80;;;6.80;99.90;;;;;;4934214;29;20196;-83
2022/11/06 08:58:45;;;;;;;25.57;15.13;;;6.90;99.90;;;;;;4938024;29;20225;-80
2022/11/06 09:01:13;;;;;;;25.40;14.93;;;6.90;89.10;;;;;;4927156;29;20195;-78
2022/11/06 09:03:40;;;;;;;23.67;14.70;;;6.90;99.90;;;;;;4938261;29;20201;-79
2022/11/06 09:06:08;;;;;;;26.23;14.03;;;7.00;99.90;;;;;;4937852;29;20227;-77
2022/11/06 09:08:35;;;;;;;23.17;14.33;;;7.00;99.70;;;;;;4937930;29;20225;-78
2022/11/06 09:11:07;;;;;;;25.23;14.73;;;7.10;97.90;;;;;;4937904;29;20616;-79
2022/11/06 09:13:34;;;;;;;30.13;14.60;;;7.10;84.40;;;;;;4937341;29;20669;-79
2022/11/06 09:16:01;;;;;;;19.93;14.37;;;7.20;98.80;;;;;;4926984;29;20592;-79
2022/11/06 09:18:30;;;;;;;22.27;13.43;;;7.20;62.00;;;;;;4920201;29;20209;-79
2022/11/06 09:20:58;;;;;;;22.67;14.40;;;7.30;92.70;;;;;;4917879;29;20197;-78
2022/11/06 09:23:25;;;;;;;26.43;13.90;;;7.40;99.90;;;;;;4924437;29;20591;-76
2022/11/06 09:25:53;;;;;;;33.83;24.53;;;7.40;99.90;;;;;;4932108;29;20194;-78
2022/11/06 09:28:20;;;;;;;22.90;13.73;;;7.50;99.90;;;;;;4936345;29;20200;-77
2022/11/06 09:30:47;;;;;;;24.57;14.13;;;7.50;99.90;;;;;;4937500;29;20254;-77
2022/11/06 09:33:14;;;;;;;26.00;14.70;;;7.60;1.00;;;;;;4937501;29;20204;-83
2022/11/06 09:35:43;;;;;;;24.70;13.60;;;7.60;1.00;;;;;;4936526;29;20236;-79
2022/11/06 09:38:12;;;;;;;21.53;14.13;;;7.70;1.00;;;;;;4937563;29;20225;-79
2022/11/06 09:40:44;;;;;;;18.73;12.77;;;7.70;1.00;;;;;;4939942;29;20195;-76
2022/11/06 09:43:19;;;;;;;21.63;13.60;;;7.80;1.00;;;;;;4918614;29;20189;-78
2022/11/06 09:45:48;;;;;;;22.90;12.97;;;7.90;1.00;;;;;;4917936;29;20237;-78
2022/11/06 09:48:23;;;;;;;102.00;74.90;;;7.90;1.00;;;;;;4918214;29;20202;-81
2022/11/06 09:50:56;;;;;;;42.17;34.50;;;8.00;1.00;;;;;;4917904;29;20630;-76
2022/11/06 09:53:28;;;;;;;26.33;15.80;;;8.10;1.00;;;;;;4935048;29;20257;-77
2022/11/06 09:55:57;;;;;;;21.40;14.37;;;8.20;1.00;;;;;;4934759;29;20190;-78
2022/11/06 09:58:30;;;;;;;24.57;15.83;;;8.20;1.00;;;;;;4936447;29;20637;-80
2022/11/06 10:01:00;;;;;;;31.10;17.63;;;8.30;99.90;;;;;;4933339;29;20613;-79
2022/11/06 10:03:39;;;;;;;27.17;20.23;;;8.40;99.90;;;;;;4917684;29;20607;-77
2022/11/06 10:06:08;;;;;;;19.60;13.10;;;8.50;1.00;;;;;;4926449;29;20186;-80
2022/11/06 10:08:35;;;;;;;20.23;12.60;;;8.60;99.90;;;;;;4928346;29;20194;-80
2022/11/06 10:11:22;;;;;;;21.57;12.60;;;8.70;99.90;;;;;;4928521;29;20199;-79
2022/11/06 10:13:58;;;;;;;20.40;13.87;;;8.70;99.90;;;;;;4919286;29;20282;-80
2022/11/06 10:16:35;;;;;;;19.90;11.90;;;8.80;99.90;;;;;;4922256;29;20185;-79
2022/11/06 10:19:10;;;;;;;19.97;12.60;;;8.80;99.90;;;;;;4926285;29;20759;-80
2022/11/06 10:21:47;;;;;;;20.37;13.23;;;8.90;99.90;;;;;;4917505;29;20603;-78
2022/11/06 10:24:22;;;;;;;21.93;13.57;;;9.00;99.90;;;;;;4917584;29;20698;-78
2022/11/06 10:26:54;;;;;;;18.47;13.50;;;9.10;99.90;;;;;;4916741;29;20721;-78
2022/11/06 10:29:40;;;;;;;17.37;10.90;;;9.20;97.60;;;;;;4917177;29;20196;-79
2022/11/06 10:32:31;;;;;;;20.97;12.33;;;9.20;1.00;;;;;;4917294;29;20204;-79
2022/11/06 10:35:02;;;;;;;17.27;11.60;;;9.40;1.00;;;;;;4928567;29;20196;-78
2022/11/06 10:37:35;;;;;;;15.73;11.50;;;9.40;1.00;;;;;;4935716;29;20211;-78
2022/11/06 10:40:05;;;;;;;16.87;11.00;;;9.50;1.00;;;;;;4923743;29;20212;-78
2022/11/06 10:42:36;;;;;;;21.43;14.40;;;9.60;1.00;;;;;;4933977;29;20230;-78
2022/11/06 10:45:06;;;;;;;20.77;14.43;;;9.60;1.00;;;;;;4935779;29;20641;-77
2022/11/06 10:47:38;;;;;;;16.63;11.00;;;9.80;1.00;;;;;;4938484;29;20258;-78
2022/11/06 10:50:11;;;;;;;12.50;9.27;;;9.80;1.00;;;;;;4944923;28;20325;-78
2022/11/06 10:52:50;;;;;;;14.20;8.30;;;9.90;1.00;;;;;;4932114;29;20215;-80
2022/11/06 10:55:44;;;;;;;12.63;7.30;;;10.00;99.90;;;;;;4916957;29;20518;-80
2022/11/06 10:58:15;;;;;;;15.90;9.77;;;10.00;1.00;;;;;;4916921;29;20600;-79
2022/11/06 11:00:42;;;;;;;14.87;10.27;;;10.10;1.00;;;;;;4933897;29;20202;-77
2022/11/06 11:03:19;;;;;;;34.70;25.03;;;10.20;1.00;;;;;;4935226;29;20618;-78
2022/11/06 11:05:46;;;;;;;21.30;14.23;;;10.20;1.00;;;;;;4936146;29;20189;-78
2022/11/06 11:08:35;;;;;;;14.97;10.60;;;10.30;1.00;;;;;;4936006;29;20204;-77
2022/11/06 11:11:04;;;;;;;12.70;7.97;;;10.30;99.90;;;;;;4934409;29;20249;-78
2022/11/06 11:13:31;;;;;;;12.70;10.53;;;10.40;1.00;;;;;;4934234;29;20223;-81
2022/11/06 11:15:59;;;;;;;14.43;8.83;;;10.40;1.00;;;;;;4935218;29;20660;-78
2022/11/06 11:18:30;;;;;;;12.20;7.27;;;10.50;1.00;;;;;;4934419;29;20201;-82
2022/11/06 11:21:15;;;;;;;5.63;4.77;;;10.60;99.90;;;;;;4935230;29;20217;-76
2022/11/06 11:23:43;;;;;;;9.30;4.80;;;10.70;1.00;;;;;;4934269;29;20687;-77
2022/11/06 11:26:22;;;;;;;8.73;5.83;;;10.70;99.90;;;;;;4927098;29;20259;-77
2022/11/06 11:28:54;;;;;;;10.50;5.27;;;10.70;99.90;;;;;;4932602;29;20203;-79
2022/11/06 11:31:29;;;;;;;33.80;21.13;;;10.70;99.90;;;;;;4919120;29;20204;-77
2022/11/06 11:34:00;;;;;;;22.50;15.07;;;10.70;1.00;;;;;;4922778;29;20193;-79
2022/11/06 11:36:47;;;;;;;9.17;6.07;;;10.70;99.90;;;;;;4935204;29;20186;-79
2022/11/06 11:39:18;;;;;;;5.90;4.57;;;10.80;9.30;;;;;;4920744;29;20268;-77
2022/11/06 11:41:45;;;;;;;8.80;6.13;;;10.80;1.00;;;;;;4916098;29;20197;-78
2022/11/06 11:44:16;;;;;;;6.23;3.90;;;10.90;99.90;;;;;;4918316;29;20229;-79
2022/11/06 11:46:50;;;;;;;8.23;4.37;;;10.90;1.00;;;;;;4923057;28;20186;-78
2022/11/06 11:49:29;;;;;;;7.73;6.50;;;11.00;99.90;;;;;;4924456;29;20210;-77
2022/11/06 11:51:59;;;;;;;9.50;7.20;;;11.00;99.90;;;;;;4926619;29;20193;-77
2022/11/06 11:54:31;;;;;;;8.43;5.57;;;11.00;99.90;;;;;;4934088;29;20226;-77
2022/11/06 11:57:01;;;;;;;12.23;7.03;;;11.10;70.80;;;;;;4929879;29;20215;-78
2022/11/06 11:59:32;;;;;;;10.17;6.90;;;11.10;1.00;;;;;;4931284;29;21802;-78
2022/11/06 12:02:04;;;;;;;8.43;6.57;;;11.20;1.00;;;;;;4919965;29;20263;-77
2022/11/06 12:04:36;;;;;;;12.53;7.10;;;11.20;1.00;;;;;;4925493;29;20191;-79
2022/11/06 12:07:07;;;;;;;11.27;7.90;;;11.20;1.00;;;;;;4924211;29;20214;-78
2022/11/06 12:09:42;;;;;;;11.10;5.90;;;11.30;1.00;;;;;;4929823;29;20647;-78
2022/11/06 12:12:21;;;;;;;12.13;7.97;;;11.30;1.00;;;;;;4933768;29;20201;-83
2022/11/06 12:15:05;;;;;;;8.50;4.70;;;11.30;99.90;;;;;;4929409;29;20605;-81
2022/11/06 12:17:35;;;;;;;12.20;9.50;;;11.40;99.90;;;;;;4933865;29;20206;-83
2022/11/06 12:20:08;;;;;;;6.30;4.27;;;11.40;99.90;;;;;;4928508;29;20214;-79
2022/11/06 12:22:37;;;;;;;8.20;4.00;;;11.40;99.90;;;;;;4925564;29;20204;-78
2022/11/06 12:25:13;;;;;;;5.03;4.43;;;11.50;1.60;;;;;;4933308;28;20203;-79
2022/11/06 12:27:46;;;;;;;7.00;4.27;;;11.40;1.00;;;;;;4934439;29;20283;-82
2022/11/06 12:30:16;;;;;;;6.43;4.60;;;11.40;1.00;;;;;;4932990;29;20652;-79
2022/11/06 12:32:59;;;;;;;4.77;3.50;;;11.50;1.00;;;;;;4923072;29;20254;-81
2022/11/06 12:35:29;;;;;;;4.83;3.33;;;11.50;1.00;;;;;;4919204;29;20567;-81
2022/11/06 12:38:15;;;;;;;3.80;3.00;;;11.50;1.00;;;;;;4932523;29;20239;-78
2022/11/06 12:40:48;;;;;;;5.33;3.50;;;11.50;1.00;;;;;;4937195;29;20213;-79
2022/11/06 12:43:23;;;;;;;5.80;3.63;;;11.50;1.00;;;;;;4937764;29;20653;-79
2022/11/06 12:46:03;;;;;;;6.33;3.50;;;11.50;1.00;;;;;;4938278;29;20263;-79
2022/11/06 12:49:01;;;;;;;7.80;5.03;;;11.50;1.00;;;;;;4936963;29;20278;-79
2022/11/06 12:51:37;;;;;;;6.33;4.67;;;11.50;1.00;;;;;;4933977;29;20223;-79
2022/11/06 12:54:21;;;;;;;15.53;11.03;;;11.50;1.00;;;;;;4934660;29;20190;-78
2022/11/06 12:56:59;;;;;;;15.87;11.63;;;11.50;1.00;;;;;;4934452;29;20203;-80
2022/11/06 12:59:42;;;;;;;11.57;8.60;;;11.50;1.00;;;;;;4937123;29;20262;-79
2022/11/06 13:02:23;;;;;;;10.97;6.80;;;11.40;99.90;;;;;;4937668;29;20203;-78
2022/11/06 13:04:58;;;;;;;10.33;6.90;;;11.40;99.90;;;;;;4936058;29;20193;-79
2022/11/06 13:07:45;;;;;;;8.77;5.13;;;11.40;99.90;;;;;;4930728;29;20275;-79
2022/11/06 13:10:30;;;;;;;7.07;3.90;;;11.40;99.90;;;;;;4918695;29;20250;-78
2022/11/06 13:13:10;;;;;;;8.43;5.60;;;11.30;99.90;;;;;;4920913;29;20286;-80
2022/11/06 13:15:47;;;;;;;16.63;10.60;;;11.30;99.90;;;;;;4918338;29;20251;-80
2022/11/06 13:18:19;;;;;;;17.53;14.20;;;11.30;99.90;;;;;;4924188;29;20196;-77